Time,TemperatureF,DewpointF,PressureIn,WindDirection,WindDirectionDegrees,WindSpeedMPH,WindSpeedGustMPH,Humidity,HourlyPrecipIn,Conditions,Clouds,dailyrainin,SoftwareType,DateUTC
2013-02-05 00:03:00,42.3,38.7,29.99,SE,133,4.0,4.5,87,0.00,,,0.00,VWS V14.01,2013-02-05 08:03:00,
2013-02-05 00:08:00,42.1,38.5,29.99,SE,133,3.6,4.5,87,0.00,,,0.00,VWS V14.01,2013-02-05 08:08:00,
2013-02-05 00:13:00,42.1,38.5,29.99,SE,133,4.0,4.5,87,0.00,,,0.00,VWS V14.01,2013-02-05 08:13:00,
2013-02-05 00:18:00,42.1,38.8,29.99,SE,132,4.9,5.8,88,0.00,,,0.00,VWS V14.01,2013-02-05 08:18:00,
2013-02-05 00:23:00,42.1,38.8,29.99,SE,132,3.6,4.9,88,0.00,,,0.00,VWS V14.01,2013-02-05 08:23:00,
2013-02-05 00:28:00,41.7,38.4,29.99,SE,132,4.5,4.5,88,0.00,,,0.00,VWS V14.01,2013-02-05 08:28:00,
2013-02-05 00:33:00,41.9,38.6,29.99,SE,132,4.0,4.9,88,0.00,,,0.00,VWS V14.01,2013-02-05 08:33:00,
2013-02-05 00:39:00,41.7,38.7,29.99,SE,132,5.4,5.8,89,0.00,,,0.00,VWS V14.01,2013-02-05 08:39:00,
2013-02-05 00:44:00,41.7,38.7,29.99,SE,132,4.5,4.9,89,0.00,,,0.00,VWS V14.01,2013-02-05 08:44:00,
2013-02-05 00:49:00,41.7,38.7,29.99,SE,133,4.5,4.9,89,0.00,,,0.00,VWS V14.01,2013-02-05 08:49:00,
2013-02-05 00:54:00,41.7,38.7,29.99,SE,129,4.5,4.9,89,0.00,,,0.00,VWS V14.01,2013-02-05 08:54:00,
2013-02-05 00:59:00,41.2,37.9,29.99,SE,129,3.6,4.0,88,0.00,,,0.00,VWS V14.01,2013-02-05 08:59:00,
2013-02-05 01:04:00,41.0,37.7,29.99,SE,130,3.6,4.5,88,0.00,,,0.00,VWS V14.01,2013-02-05 09:04:00,
2013-02-05 01:09:00,41.4,38.7,29.99,SE,130,5.4,5.8,90,0.00,,,0.00,VWS V14.01,2013-02-05 09:09:00,
2013-02-05 01:14:00,40.6,37.7,29.99,SE,129,4.5,5.8,89,0.00,,,0.00,VWS V14.01,2013-02-05 09:14:00,
2013-02-05 01:19:00,40.5,37.2,29.99,SE,130,4.5,4.5,88,0.00,,,0.00,VWS V14.01,2013-02-05 09:19:00,
2013-02-05 01:24:00,40.6,37.4,29.99,SE,130,0.0,3.6,88,0.00,,,0.00,VWS V14.01,2013-02-05 09:24:00,
2013-02-05 01:29:00,40.5,37.2,29.99,SE,130,0.0,0.0,88,0.00,,,0.00,VWS V14.01,2013-02-05 09:29:00,
2013-02-05 01:34:00,40.5,37.8,29.99,SE,130,0.0,0.0,90,0.00,,,0.00,VWS V14.01,2013-02-05 09:34:00,
2013-02-05 01:39:00,40.5,38.0,29.99,SE,130,3.6,4.0,91,0.00,,,0.00,VWS V14.01,2013-02-05 09:39:00,
2013-02-05 01:45:00,39.6,36.6,29.99,SE,130,3.6,4.5,89,0.00,,,0.00,VWS V14.01,2013-02-05 09:45:00,
2013-02-05 01:50:00,39.7,36.8,29.99,SE,130,4.5,4.9,89,0.00,,,0.00,VWS V14.01,2013-02-05 09:50:00,
2013-02-05 01:55:00,39.9,37.2,29.99,SE,129,2.7,3.6,90,0.00,,,0.00,VWS V14.01,2013-02-05 09:55:00,
2013-02-05 02:00:00,39.7,37.0,29.99,SE,129,3.1,3.1,90,0.00,,,0.00,VWS V14.01,2013-02-05 10:00:00,
2013-02-05 02:05:00,39.4,36.4,29.99,SE,130,2.7,3.6,89,0.00,,CLR,0.00,VWS V14.01,2013-02-05 10:05:00,
2013-02-05 02:10:00,39.2,36.2,29.99,SE,130,3.1,3.6,89,0.00,,CLR,0.00,VWS V14.01,2013-02-05 10:10:00,
2013-02-05 02:15:00,38.8,35.6,29.99,SE,130,3.6,4.0,88,0.00,,CLR,0.00,VWS V14.01,2013-02-05 10:15:00,
2013-02-05 02:20:00,39.2,36.2,29.99,SE,130,4.0,4.5,89,0.00,,CLR,0.00,VWS V14.01,2013-02-05 10:20:00,
2013-02-05 02:25:00,38.8,35.9,29.99,SE,130,4.9,4.9,89,0.00,,CLR,0.00,VWS V14.01,2013-02-05 10:25:00,
2013-02-05 02:30:00,38.3,35.1,29.99,SE,130,4.9,5.4,88,0.00,,CLR,0.00,VWS V14.01,2013-02-05 10:30:00,
2013-02-05 02:36:00,38.3,35.1,29.99,SE,127,4.5,5.4,88,0.00,,CLR,0.00,VWS V14.01,2013-02-05 10:36:00,
2013-02-05 02:41:00,38.5,35.2,29.99,SE,128,3.6,4.0,88,0.00,,CLR,0.00,VWS V14.01,2013-02-05 10:41:00,
2013-02-05 02:46:00,38.8,36.2,29.99,SE,128,3.6,4.0,90,0.00,,CLR,0.00,VWS V14.01,2013-02-05 10:46:00,
2013-02-05 02:52:00,39.2,36.8,29.99,SE,127,4.9,4.9,91,0.00,,CLR,0.00,VWS V14.01,2013-02-05 10:52:00,
2013-02-05 02:57:00,39.2,37.1,29.99,SE,127,4.0,4.0,92,0.00,,CLR,0.00,VWS V14.01,2013-02-05 10:57:00,
2013-02-05 03:02:00,38.8,36.4,29.96,SE,127,3.6,4.0,91,0.00,,CLR,0.00,VWS V14.01,2013-02-05 11:02:00,
2013-02-05 03:07:00,39.4,37.2,29.96,SE,127,4.0,4.9,92,0.00,,CLR,0.00,VWS V14.01,2013-02-05 11:07:00,
2013-02-05 03:12:00,38.8,36.7,29.96,SE,127,4.9,5.4,92,0.00,,CLR,0.00,VWS V14.01,2013-02-05 11:12:00,
2013-02-05 03:17:00,38.5,36.1,29.96,SE,126,3.6,4.5,91,0.00,,CLR,0.00,VWS V14.01,2013-02-05 11:17:00,
2013-02-05 03:22:00,38.7,36.0,29.96,SE,127,4.0,4.5,90,0.00,,CLR,0.00,VWS V14.01,2013-02-05 11:22:00,
2013-02-05 03:27:00,39.0,36.9,29.96,SE,127,4.0,4.5,92,0.00,,CLR,0.00,VWS V14.01,2013-02-05 11:27:00,
2013-02-05 03:32:00,38.8,36.7,29.96,SE,127,3.6,3.6,92,0.00,,CLR,0.00,VWS V14.01,2013-02-05 11:32:00,
2013-02-05 03:37:00,38.5,36.4,29.96,SE,127,3.6,4.5,92,0.00,,CLR,0.00,VWS V14.01,2013-02-05 11:37:00,
2013-02-05 03:42:00,37.9,35.5,29.96,SE,128,2.7,3.1,91,0.00,,CLR,0.00,VWS V14.01,2013-02-05 11:42:00,
2013-02-05 03:47:00,37.9,35.5,29.96,SE,127,3.1,3.6,91,0.00,,CLR,0.00,VWS V14.01,2013-02-05 11:47:00,
2013-02-05 03:52:00,38.5,36.1,29.96,SE,127,4.0,4.5,91,0.00,,CLR,0.00,VWS V14.01,2013-02-05 11:52:00,
2013-02-05 03:58:00,38.5,36.4,29.96,SE,127,3.6,4.5,92,0.00,,CLR,0.00,VWS V14.01,2013-02-05 11:58:00,
2013-02-05 04:03:00,38.1,36.0,29.96,SE,127,3.1,3.6,92,0.00,,CLR,0.00,VWS V14.01,2013-02-05 12:03:00,
2013-02-05 04:08:00,37.9,35.5,29.96,SE,127,0.0,2.7,91,0.00,,CLR,0.00,VWS V14.01,2013-02-05 12:08:00,
2013-02-05 04:13:00,37.4,35.0,29.96,SE,127,0.0,0.0,91,0.00,,CLR,0.00,VWS V14.01,2013-02-05 12:13:00,
2013-02-05 04:18:00,37.0,34.4,29.96,SE,127,3.6,4.0,90,0.00,,CLR,0.00,VWS V14.01,2013-02-05 12:18:00,
2013-02-05 04:23:00,35.8,32.9,29.96,SE,128,6.3,6.3,89,0.00,,CLR,0.00,VWS V14.01,2013-02-05 12:23:00,
2013-02-05 04:28:00,36.0,33.0,29.96,SE,124,5.4,5.4,89,0.00,,CLR,0.00,VWS V14.01,2013-02-05 12:28:00,
2013-02-05 04:33:00,36.5,33.8,29.96,ESE,121,4.5,4.9,90,0.00,,CLR,0.00,VWS V14.01,2013-02-05 12:33:00,
2013-02-05 04:38:00,36.9,34.5,29.96,ESE,122,4.9,5.8,91,0.00,,CLR,0.00,VWS V14.01,2013-02-05 12:38:00,
2013-02-05 04:43:00,37.4,35.3,29.96,ESE,121,5.4,5.4,92,0.00,,CLR,0.00,VWS V14.01,2013-02-05 12:43:00,
2013-02-05 04:48:00,37.4,35.6,29.96,SE,124,4.9,6.3,93,0.00,,CLR,0.00,VWS V14.01,2013-02-05 12:48:00,
2013-02-05 04:53:00,37.6,35.7,29.96,SE,125,3.1,3.6,93,0.00,,CLR,0.00,VWS V14.01,2013-02-05 12:53:00,
2013-02-05 04:58:00,37.6,35.7,29.96,SE,125,3.6,3.6,93,0.00,,CLR,0.00,VWS V14.01,2013-02-05 12:58:00,
2013-02-05 05:04:00,37.6,35.7,29.96,SE,125,2.7,3.1,93,0.00,,CLR,0.00,VWS V14.01,2013-02-05 13:04:00,
2013-02-05 05:09:00,37.4,35.6,29.96,SE,125,3.1,3.1,93,0.00,,CLR,0.00,VWS V14.01,2013-02-05 13:09:00,
2013-02-05 05:15:00,37.4,35.6,29.96,SE,126,4.0,4.9,93,0.00,,CLR,0.00,VWS V14.01,2013-02-05 13:15:00,
2013-02-05 05:21:00,36.9,34.8,29.96,SE,125,4.5,4.9,92,0.00,,CLR,0.00,VWS V14.01,2013-02-05 13:21:00,
2013-02-05 05:26:00,36.7,34.3,29.96,SE,125,4.0,4.5,91,0.00,,CLR,0.00,VWS V14.01,2013-02-05 13:26:00,
2013-02-05 05:31:00,36.7,34.3,29.96,SE,126,4.9,5.8,91,0.00,,BKN004,0.00,VWS V14.01,2013-02-05 13:31:00,
2013-02-05 05:36:00,36.7,34.3,29.96,SE,126,3.6,4.5,91,0.00,,BKN004,0.00,VWS V14.01,2013-02-05 13:36:00,
2013-02-05 05:41:00,36.7,34.3,29.96,SE,126,0.0,0.0,91,0.00,,BKN004,0.00,VWS V14.01,2013-02-05 13:41:00,
2013-02-05 05:46:00,36.3,34.0,29.96,SE,126,2.7,3.1,91,0.00,,,0.00,VWS V14.01,2013-02-05 13:46:00,
2013-02-05 05:51:00,36.3,34.0,29.96,SE,126,0.0,0.0,91,0.00,,,0.00,VWS V14.01,2013-02-05 13:51:00,
2013-02-05 05:56:00,35.8,33.1,29.96,SE,126,0.0,0.0,90,0.00,,,0.00,VWS V14.01,2013-02-05 13:56:00,
2013-02-05 06:01:00,35.2,32.3,29.96,SE,125,3.6,4.5,89,0.00,,,0.00,VWS V14.01,2013-02-05 14:01:00,
2013-02-05 06:06:00,36.0,33.6,29.96,SE,127,4.0,4.5,91,0.00,,,0.00,VWS V14.01,2013-02-05 14:06:00,
2013-02-05 06:12:00,35.8,33.4,29.96,SE,126,4.5,4.9,91,0.00,,,0.00,VWS V14.01,2013-02-05 14:12:00,
2013-02-05 06:17:00,36.1,34.0,29.96,SE,125,4.0,4.5,92,0.00,,,0.00,VWS V14.01,2013-02-05 14:17:00,
2013-02-05 06:22:00,35.8,33.4,29.96,SE,126,4.0,4.0,91,0.00,,,0.00,VWS V14.01,2013-02-05 14:22:00,
2013-02-05 06:27:00,36.3,34.2,29.96,SE,125,4.0,4.5,92,0.00,,,0.00,VWS V14.01,2013-02-05 14:27:00,
2013-02-05 06:32:00,36.7,34.6,29.96,SE,126,3.1,3.1,92,0.00,,,0.00,VWS V14.01,2013-02-05 14:32:00,
2013-02-05 06:37:00,36.9,35.0,29.96,SE,125,2.7,3.1,93,0.00,,,0.00,VWS V14.01,2013-02-05 14:37:00,
2013-02-05 06:42:00,36.9,35.0,29.96,SE,126,2.7,2.7,93,0.00,,,0.00,VWS V14.01,2013-02-05 14:42:00,
2013-02-05 06:47:00,37.6,36.0,29.96,SE,126,3.6,4.0,94,0.00,,,0.00,VWS V14.01,2013-02-05 14:47:00,
2013-02-05 06:52:00,36.9,35.3,29.96,SE,126,4.5,4.5,94,0.00,,,0.00,VWS V14.01,2013-02-05 14:52:00,
2013-02-05 06:57:00,37.0,35.5,29.96,SE,126,4.5,4.9,94,0.00,,,0.00,VWS V14.01,2013-02-05 14:57:00,
2013-02-05 07:02:00,37.6,36.3,29.96,SE,125,4.5,4.9,95,0.00,,CLR,0.00,VWS V14.01,2013-02-05 15:02:00,
2013-02-05 07:07:00,37.9,36.6,29.96,SE,126,3.6,4.9,95,0.00,,CLR,0.00,VWS V14.01,2013-02-05 15:07:00,
2013-02-05 07:12:00,38.8,37.8,29.96,ESE,117,4.0,4.0,96,0.00,,CLR,0.00,VWS V14.01,2013-02-05 15:12:00,
2013-02-05 07:18:00,39.2,38.2,29.96,ESE,116,0.0,2.7,96,0.00,,CLR,0.00,VWS V14.01,2013-02-05 15:18:00,
2013-02-05 07:23:00,39.2,38.2,29.96,ESE,117,0.0,0.0,96,0.00,,CLR,0.00,VWS V14.01,2013-02-05 15:23:00,
2013-02-05 07:28:00,39.4,38.3,29.96,ESE,117,0.0,0.0,96,0.00,,CLR,0.00,VWS V14.01,2013-02-05 15:28:00,
2013-02-05 07:33:00,39.6,38.8,29.99,ESE,117,0.0,0.0,97,0.00,,CLR,0.00,VWS V14.01,2013-02-05 15:33:00,
2013-02-05 07:38:00,39.4,38.6,29.99,ESE,116,0.0,0.0,97,0.00,,CLR,0.00,VWS V14.01,2013-02-05 15:38:00,
2013-02-05 07:43:00,39.2,38.4,29.99,ESE,117,0.0,0.0,97,0.00,,CLR,0.00,VWS V14.01,2013-02-05 15:43:00,
2013-02-05 07:48:00,39.6,38.8,29.99,ESE,117,2.7,2.7,97,0.00,,CLR,0.00,VWS V14.01,2013-02-05 15:48:00,
2013-02-05 07:53:00,39.9,39.1,29.99,ESE,117,3.6,3.6,97,0.00,,CLR,0.00,VWS V14.01,2013-02-05 15:53:00,
2013-02-05 07:58:00,40.3,39.5,29.99,ESE,117,2.7,3.1,97,0.00,,CLR,0.00,VWS V14.01,2013-02-05 15:58:00,
2013-02-05 08:03:00,39.9,39.1,29.99,ESE,117,3.6,4.0,97,0.00,,FEW008,0.00,VWS V14.01,2013-02-05 16:03:00,
2013-02-05 08:08:00,40.3,39.5,29.99,ESE,117,4.5,5.4,97,0.00,,FEW008,0.00,VWS V14.01,2013-02-05 16:08:00,
2013-02-05 08:13:00,40.6,39.9,29.99,ESE,116,3.6,4.9,97,0.00,,FEW008,0.00,VWS V14.01,2013-02-05 16:13:00,
2013-02-05 08:18:00,41.0,40.2,29.99,ESE,117,4.5,4.9,97,0.00,,FEW008,0.00,VWS V14.01,2013-02-05 16:18:00,
2013-02-05 08:24:00,41.7,40.9,29.99,ESE,117,3.1,4.0,97,0.00,,FEW008,0.00,VWS V14.01,2013-02-05 16:24:00,
2013-02-05 08:30:00,42.3,41.5,29.99,ESE,116,0.0,0.0,97,0.00,,FEW008,0.00,VWS V14.01,2013-02-05 16:30:00,
2013-02-05 08:35:00,42.4,41.7,29.99,ESE,116,0.0,0.0,97,0.00,,FEW008,0.00,VWS V14.01,2013-02-05 16:35:00,
2013-02-05 08:40:00,42.8,42.0,29.99,ESE,116,0.0,0.0,97,0.00,,FEW008,0.00,VWS V14.01,2013-02-05 16:40:00,
2013-02-05 08:45:00,43.3,42.5,29.99,ESE,117,0.0,0.0,97,0.00,,FEW008,0.00,VWS V14.01,2013-02-05 16:45:00,
2013-02-05 08:51:00,44.2,43.2,29.99,ESE,116,0.0,0.0,96,0.00,,FEW008,0.00,VWS V14.01,2013-02-05 16:51:00,
2013-02-05 08:56:00,45.3,44.5,29.99,ESE,117,4.0,4.5,97,0.00,,FEW008,0.00,VWS V14.01,2013-02-05 16:56:00,
2013-02-05 09:02:00,45.9,44.5,29.99,SSE,163,5.4,6.9,95,0.00,,CLR,0.00,VWS V14.01,2013-02-05 17:02:00,
2013-02-05 09:07:00,46.6,45.0,29.99,South,185,4.0,4.5,94,0.00,,CLR,0.00,VWS V14.01,2013-02-05 17:07:00,
2013-02-05 09:12:00,46.9,45.3,29.99,South,185,0.0,0.0,94,0.00,,CLR,0.00,VWS V14.01,2013-02-05 17:12:00,
2013-02-05 09:17:00,46.9,44.5,29.99,SSE,164,2.7,6.7,91,0.00,,CLR,0.00,VWS V14.01,2013-02-05 17:17:00,
2013-02-05 09:22:00,47.7,44.0,29.99,South,170,3.1,3.6,87,0.00,,CLR,0.00,VWS V14.01,2013-02-05 17:22:00,
2013-02-05 09:28:00,48.0,43.7,29.99,South,191,3.6,6.7,85,0.00,,CLR,0.00,VWS V14.01,2013-02-05 17:28:00,
2013-02-05 09:33:00,49.1,44.5,29.99,South,188,7.4,7.4,84,0.00,,CLR,0.00,VWS V14.01,2013-02-05 17:33:00,
2013-02-05 09:38:00,49.3,44.0,29.99,South,184,4.5,5.4,82,0.00,,CLR,0.00,VWS V14.01,2013-02-05 17:38:00,
2013-02-05 09:44:00,49.8,43.2,29.99,WSW,242,4.5,7.4,78,0.00,,CLR,0.00,VWS V14.01,2013-02-05 17:44:00,
2013-02-05 09:50:00,50.2,41.9,29.99,SW,235,4.9,4.9,73,0.00,,CLR,0.00,VWS V14.01,2013-02-05 17:50:00,
2013-02-05 09:56:00,50.7,42.0,29.99,WNW,282,4.9,6.3,72,0.00,,CLR,0.00,VWS V14.01,2013-02-05 17:56:00,
2013-02-05 10:01:00,50.9,42.2,29.99,WSW,241,6.9,7.4,72,0.00,,CLR,0.00,VWS V14.01,2013-02-05 18:01:00,
2013-02-05 10:06:00,50.9,41.5,29.99,WNW,287,7.4,13.0,70,0.00,,CLR,0.00,VWS V14.01,2013-02-05 18:06:00,
2013-02-05 10:11:00,49.6,39.5,29.99,West,276,6.9,8.7,68,0.00,,CLR,0.00,VWS V14.01,2013-02-05 18:11:00,
2013-02-05 10:16:00,50.4,40.6,30.02,SW,224,6.7,7.4,69,0.00,,CLR,0.00,VWS V14.01,2013-02-05 18:16:00,
2013-02-05 10:21:00,50.7,40.9,30.02,West,262,7.8,7.8,69,0.00,,CLR,0.00,VWS V14.01,2013-02-05 18:21:00,
2013-02-05 10:26:00,50.5,40.0,30.02,West,265,4.5,9.6,67,0.00,,CLR,0.00,VWS V14.01,2013-02-05 18:26:00,
2013-02-05 10:32:00,51.3,40.7,29.99,SE,143,8.3,8.3,67,0.00,,CLR,0.00,VWS V14.01,2013-02-05 18:32:00,
2013-02-05 10:37:00,51.8,40.8,29.99,SSW,202,5.8,6.7,66,0.00,,CLR,0.00,VWS V14.01,2013-02-05 18:37:00,
2013-02-05 10:42:00,52.7,40.5,29.99,WSW,248,5.4,6.7,63,0.00,,CLR,0.00,VWS V14.01,2013-02-05 18:42:00,
2013-02-05 10:47:00,52.9,39.4,30.02,SSW,205,4.9,6.9,60,0.00,,CLR,0.00,VWS V14.01,2013-02-05 18:47:00,
2013-02-05 10:52:00,52.7,39.2,30.02,SW,234,5.8,7.8,60,0.00,,CLR,0.00,VWS V14.01,2013-02-05 18:52:00,
2013-02-05 10:58:00,52.7,39.6,30.02,SW,222,6.9,8.7,61,0.00,,CLR,0.00,VWS V14.01,2013-02-05 18:58:00,
2013-02-05 11:03:00,52.3,38.9,29.99,SSW,209,4.5,7.8,60,0.00,,CLR,0.00,VWS V14.01,2013-02-05 19:03:00,
2013-02-05 11:08:00,52.5,39.5,29.99,WSW,258,6.7,7.8,61,0.00,,CLR,0.00,VWS V14.01,2013-02-05 19:08:00,
2013-02-05 11:13:00,52.9,40.2,29.99,SSW,201,5.4,6.3,62,0.00,,CLR,0.00,VWS V14.01,2013-02-05 19:13:00,
2013-02-05 11:18:00,52.7,39.6,29.99,SSE,155,6.9,6.9,61,0.00,,CLR,0.00,VWS V14.01,2013-02-05 19:18:00,
2013-02-05 11:23:00,52.5,39.5,29.99,SSW,192,6.3,7.4,61,0.00,,CLR,0.00,VWS V14.01,2013-02-05 19:23:00,
2013-02-05 11:28:00,52.3,39.3,29.99,South,182,3.1,7.4,61,0.00,,CLR,0.00,VWS V14.01,2013-02-05 19:28:00,
2013-02-05 11:33:00,52.3,39.7,29.99,SE,140,4.9,7.4,62,0.00,,CLR,0.00,VWS V14.01,2013-02-05 19:33:00,
2013-02-05 11:39:00,53.1,40.8,29.99,SSE,162,5.4,7.4,63,0.00,,CLR,0.00,VWS V14.01,2013-02-05 19:39:00,
2013-02-05 11:44:00,53.4,40.3,29.99,South,190,7.4,7.8,61,0.00,,CLR,0.00,VWS V14.01,2013-02-05 19:44:00,
2013-02-05 11:50:00,53.8,40.2,29.99,SSE,154,5.8,6.7,60,0.00,,CLR,0.00,VWS V14.01,2013-02-05 19:50:00,
2013-02-05 11:55:00,53.8,39.8,29.99,SW,218,4.5,8.7,59,0.00,,CLR,0.00,VWS V14.01,2013-02-05 19:55:00,
2013-02-05 12:00:00,54.1,40.1,29.99,SW,218,6.7,7.8,59,0.00,,CLR,0.00,VWS V14.01,2013-02-05 20:00:00,
2013-02-05 12:05:00,54.1,40.1,29.99,SW,231,7.8,7.8,59,0.00,,BKN017,0.00,VWS V14.01,2013-02-05 20:05:00,
2013-02-05 12:11:00,54.5,40.9,29.99,SW,232,3.1,6.9,60,0.00,,BKN017,0.00,VWS V14.01,2013-02-05 20:11:00,
2013-02-05 12:17:00,54.7,40.7,29.96,SW,223,7.8,8.7,59,0.00,,BKN017,0.00,VWS V14.01,2013-02-05 20:17:00,
2013-02-05 12:22:00,54.1,40.1,29.96,South,169,4.0,6.3,59,0.00,,BKN017,0.00,VWS V14.01,2013-02-05 20:22:00,
2013-02-05 12:27:00,54.0,40.0,29.96,SW,215,4.9,8.7,59,0.00,,BKN017,0.00,VWS V14.01,2013-02-05 20:27:00,
2013-02-05 12:32:00,53.6,40.1,29.96,SW,231,7.8,8.3,60,0.00,,BKN017,0.00,VWS V14.01,2013-02-05 20:32:00,
2013-02-05 12:37:00,53.6,40.1,29.96,WSW,237,6.7,8.7,60,0.00,,BKN017,0.00,VWS V14.01,2013-02-05 20:37:00,
2013-02-05 12:42:00,53.6,40.5,29.96,SW,230,5.4,8.3,61,0.00,,BKN017,0.00,VWS V14.01,2013-02-05 20:42:00,
2013-02-05 12:47:00,53.4,40.3,29.96,SW,215,6.3,6.3,61,0.00,,SCT019,0.00,VWS V14.01,2013-02-05 20:47:00,
2013-02-05 12:53:00,53.4,40.7,29.96,SSW,199,6.3,7.4,62,0.00,,SCT019,0.00,VWS V14.01,2013-02-05 20:53:00,
2013-02-05 12:58:00,53.1,40.0,29.96,SW,223,6.7,10.1,61,0.00,,SCT019,0.00,VWS V14.01,2013-02-05 20:58:00,
2013-02-05 13:03:00,52.5,40.3,29.96,SW,221,6.3,6.9,63,0.00,,CLR,0.00,VWS V14.01,2013-02-05 21:03:00,
2013-02-05 13:09:00,52.3,40.5,29.96,SW,221,5.4,6.9,64,0.00,,CLR,0.00,VWS V14.01,2013-02-05 21:09:00,
2013-02-05 13:14:00,52.3,40.9,29.96,WSW,250,5.8,9.6,65,0.00,,CLR,0.00,VWS V14.01,2013-02-05 21:14:00,
2013-02-05 13:19:00,52.2,40.8,29.96,SW,222,8.3,9.6,65,0.00,,CLR,0.00,VWS V14.01,2013-02-05 21:19:00,
2013-02-05 13:24:00,52.3,40.9,29.96,South,181,6.3,6.9,65,0.00,,CLR,0.00,VWS V14.01,2013-02-05 21:24:00,
2013-02-05 13:29:00,52.7,41.3,29.96,SW,230,4.9,6.9,65,0.00,,CLR,0.00,VWS V14.01,2013-02-05 21:29:00,
2013-02-05 13:34:00,52.5,40.7,29.96,SW,231,7.4,11.0,64,0.00,,CLR,0.00,VWS V14.01,2013-02-05 21:34:00,
2013-02-05 13:39:00,52.3,40.9,29.96,SW,216,5.8,8.7,65,0.00,,CLR,0.00,VWS V14.01,2013-02-05 21:39:00,
2013-02-05 13:44:00,52.3,40.9,29.96,SSE,162,6.7,7.4,65,0.00,,CLR,0.00,VWS V14.01,2013-02-05 21:44:00,
2013-02-05 13:50:00,52.7,40.9,29.96,SSE,149,6.7,7.8,64,0.00,,CLR,0.00,VWS V14.01,2013-02-05 21:50:00,
2013-02-05 13:55:00,52.9,40.6,29.96,SSW,204,5.8,6.7,63,0.00,,CLR,0.00,VWS V14.01,2013-02-05 21:55:00,
2013-02-05 14:00:00,52.7,40.1,29.96,South,189,8.3,9.6,62,0.00,,CLR,0.00,VWS V14.01,2013-02-05 22:00:00,
2013-02-05 14:05:00,52.3,39.7,29.96,South,186,5.4,9.6,62,0.00,,FEW021,0.00,VWS V14.01,2013-02-05 22:05:00,
2013-02-05 14:10:00,52.2,39.1,29.96,SSW,192,9.6,10.5,61,0.00,,FEW021,0.00,VWS V14.01,2013-02-05 22:10:00,
2013-02-05 14:15:00,51.6,39.5,29.96,SW,232,5.4,6.3,63,0.00,,FEW021,0.00,VWS V14.01,2013-02-05 22:15:00,
2013-02-05 14:20:00,51.4,40.1,29.96,SW,227,10.1,10.1,65,0.00,,FEW021,0.00,VWS V14.01,2013-02-05 22:20:00,
2013-02-05 14:25:00,51.1,40.1,29.96,SSW,201,4.5,9.2,66,0.00,,FEW021,0.00,VWS V14.01,2013-02-05 22:25:00,
2013-02-05 14:30:00,51.6,41.0,29.96,East,93,4.9,7.8,67,0.00,,FEW021,0.00,VWS V14.01,2013-02-05 22:30:00,
2013-02-05 14:35:00,52.2,41.2,29.96,East,94,6.3,8.3,66,0.00,,FEW021,0.00,VWS V14.01,2013-02-05 22:35:00,
2013-02-05 14:40:00,52.5,40.3,29.96,SW,227,4.5,6.3,63,0.00,,FEW021,0.00,VWS V14.01,2013-02-05 22:40:00,
2013-02-05 14:45:00,53.1,40.4,29.96,South,182,7.8,7.8,62,0.00,,FEW021,0.00,VWS V14.01,2013-02-05 22:45:00,
2013-02-05 14:50:00,53.1,39.1,29.96,SW,229,11.2,11.2,59,0.00,,FEW021,0.00,VWS V14.01,2013-02-05 22:50:00,
2013-02-05 14:55:00,52.9,38.1,29.96,South,187,8.7,8.7,57,0.00,,FEW021,0.00,VWS V14.01,2013-02-05 22:55:00,
2013-02-05 15:01:00,53.1,37.8,29.96,SSW,213,7.4,9.2,56,0.00,,CLR,0.00,VWS V14.01,2013-02-05 23:01:00,
2013-02-05 15:06:00,53.2,38.4,29.96,South,175,4.5,6.3,57,0.00,,CLR,0.00,VWS V14.01,2013-02-05 23:06:00,
2013-02-05 15:11:00,53.1,37.3,29.96,SSE,161,5.4,8.3,55,0.00,,CLR,0.00,VWS V14.01,2013-02-05 23:11:00,
2013-02-05 15:16:00,53.1,37.8,29.96,SW,227,6.3,8.3,56,0.00,,CLR,0.00,VWS V14.01,2013-02-05 23:16:00,
2013-02-05 15:21:00,53.1,37.8,29.96,SSW,199,6.9,10.1,56,0.00,,CLR,0.00,VWS V14.01,2013-02-05 23:21:00,
2013-02-05 15:26:00,52.9,37.6,29.96,ESE,118,6.3,6.7,56,0.00,,CLR,0.00,VWS V14.01,2013-02-05 23:26:00,
2013-02-05 15:31:00,52.9,38.1,29.96,South,189,6.9,10.5,57,0.00,,CLR,0.00,VWS V14.01,2013-02-05 23:31:00,
2013-02-05 15:36:00,52.7,37.9,29.96,SE,138,6.7,7.4,57,0.00,,CLR,0.00,VWS V14.01,2013-02-05 23:36:00,
2013-02-05 15:41:00,52.9,38.5,29.96,South,190,6.3,6.3,58,0.00,,CLR,0.00,VWS V14.01,2013-02-05 23:41:00,
2013-02-05 15:46:00,52.5,37.3,29.96,SSW,202,6.3,10.5,56,0.00,,CLR,0.00,VWS V14.01,2013-02-05 23:46:00,
2013-02-05 15:51:00,52.3,37.6,29.96,SSE,150,2.7,6.3,57,0.00,,CLR,0.00,VWS V14.01,2013-02-05 23:51:00,
2013-02-05 15:57:00,52.3,37.6,29.96,SSW,192,7.4,8.7,57,0.00,,CLR,0.00,VWS V14.01,2013-02-05 23:57:00,
2013-02-05 16:02:00,52.5,37.7,29.96,SSW,212,6.3,9.2,57,0.00,,CLR,0.00,VWS V14.01,2013-02-06 00:02:00,
2013-02-05 16:07:00,52.5,37.3,29.96,SSE,165,4.5,10.1,56,0.00,,CLR,0.00,VWS V14.01,2013-02-06 00:07:00,
2013-02-05 16:12:00,52.3,37.1,29.96,SSE,150,4.9,6.7,56,0.00,,CLR,0.00,VWS V14.01,2013-02-06 00:12:00,
2013-02-05 16:17:00,52.0,36.8,29.96,SW,234,6.9,6.9,56,0.00,,CLR,0.00,VWS V14.01,2013-02-06 00:17:00,
2013-02-05 16:23:00,51.8,36.2,29.96,SW,216,4.9,9.2,55,0.00,,CLR,0.00,VWS V14.01,2013-02-06 00:23:00,
2013-02-05 16:27:00,51.6,36.5,29.96,South,178,7.4,8.7,56,0.00,,CLR,0.00,VWS V14.01,2013-02-06 00:27:00,
2013-02-05 16:33:00,51.4,36.7,29.96,SSW,202,7.8,7.8,57,0.00,,CLR,0.00,VWS V14.01,2013-02-06 00:33:00,
2013-02-05 16:38:00,51.1,36.4,29.96,ESE,114,7.4,8.7,57,0.00,,CLR,0.00,VWS V14.01,2013-02-06 00:38:00,
2013-02-05 16:43:00,51.1,36.8,29.96,SSE,159,4.5,5.8,58,0.00,,CLR,0.00,VWS V14.01,2013-02-06 00:43:00,
2013-02-05 16:48:00,50.7,36.9,29.96,SSE,159,7.4,8.3,59,0.00,,CLR,0.00,VWS V14.01,2013-02-06 00:48:00,
2013-02-05 16:53:00,50.5,37.6,29.96,SSE,156,4.9,5.8,61,0.00,,CLR,0.00,VWS V14.01,2013-02-06 00:53:00,
2013-02-05 16:59:00,50.2,37.7,29.96,SSE,161,4.0,6.3,62,0.00,,CLR,0.00,VWS V14.01,2013-02-06 00:59:00,
2013-02-05 17:04:00,50.0,37.9,29.96,SSE,161,3.6,6.7,63,0.00,,CLR,0.00,VWS V14.01,2013-02-06 01:04:00,
2013-02-05 17:09:00,49.8,37.8,29.96,SSE,162,3.1,4.0,63,0.00,,CLR,0.00,VWS V14.01,2013-02-06 01:09:00,
2013-02-05 17:14:00,49.5,37.8,29.99,SSE,161,3.6,5.8,64,0.00,,CLR,0.00,VWS V14.01,2013-02-06 01:14:00,
2013-02-05 17:19:00,49.3,38.0,29.99,SSE,161,4.0,6.3,65,0.00,,CLR,0.00,VWS V14.01,2013-02-06 01:19:00,
2013-02-05 17:25:00,48.9,38.1,29.99,SSE,158,4.0,5.8,66,0.00,,CLR,0.00,VWS V14.01,2013-02-06 01:25:00,
2013-02-05 17:30:00,48.4,37.9,29.99,SSE,157,3.1,4.0,67,0.00,,CLR,0.00,VWS V14.01,2013-02-06 01:30:00,
2013-02-05 17:35:00,47.8,37.8,29.99,SSE,154,4.5,4.5,68,0.00,,CLR,0.00,VWS V14.01,2013-02-06 01:35:00,
2013-02-05 17:40:00,47.5,37.8,29.99,SSE,153,3.6,4.0,69,0.00,,CLR,0.00,VWS V14.01,2013-02-06 01:40:00,
2013-02-05 17:45:00,46.6,37.0,29.99,ESE,122,4.5,4.5,69,0.00,,CLR,0.00,VWS V14.01,2013-02-06 01:45:00,
2013-02-05 17:50:00,46.4,38.2,29.99,ESE,111,6.3,6.7,73,0.00,,CLR,0.00,VWS V14.01,2013-02-06 01:50:00,
2013-02-05 17:56:00,46.0,37.9,29.99,ESE,115,4.5,4.9,73,0.00,,CLR,0.00,VWS V14.01,2013-02-06 01:56:00,
2013-02-05 18:02:00,46.0,38.9,29.96,ESE,113,6.3,6.7,76,0.00,,CLR,0.00,VWS V14.01,2013-02-06 02:02:00,
2013-02-05 18:08:00,45.9,38.4,29.96,ESE,118,4.9,5.8,75,0.00,,CLR,0.00,VWS V14.01,2013-02-06 02:08:00,
2013-02-05 18:13:00,45.1,37.0,29.96,ESE,119,4.5,4.5,73,0.00,,CLR,0.00,VWS V14.01,2013-02-06 02:13:00,
2013-02-05 18:18:00,44.6,36.8,29.96,ESE,119,3.6,4.5,74,0.00,,CLR,0.00,VWS V14.01,2013-02-06 02:18:00,
2013-02-05 18:23:00,44.1,36.3,29.96,ESE,119,4.0,4.5,74,0.00,,CLR,0.00,VWS V14.01,2013-02-06 02:23:00,
2013-02-05 18:28:00,43.7,36.3,29.96,ESE,119,3.6,4.5,75,0.00,,CLR,0.00,VWS V14.01,2013-02-06 02:28:00,
2013-02-05 18:33:00,43.7,36.6,29.99,ESE,118,4.9,5.4,76,0.00,,CLR,0.00,VWS V14.01,2013-02-06 02:33:00,
2013-02-05 18:38:00,43.3,36.6,29.99,ESE,105,4.5,5.8,77,0.00,,CLR,0.00,VWS V14.01,2013-02-06 02:38:00,
2013-02-05 18:43:00,43.3,36.6,29.99,SE,130,3.1,4.0,77,0.00,,CLR,0.00,VWS V14.01,2013-02-06 02:43:00,
2013-02-05 18:48:00,43.0,36.3,29.99,SE,131,2.7,3.1,77,0.00,,CLR,0.00,VWS V14.01,2013-02-06 02:48:00,
2013-02-05 18:53:00,43.0,36.6,29.99,SE,131,3.6,4.0,78,0.00,,CLR,0.00,VWS V14.01,2013-02-06 02:53:00,
2013-02-05 18:59:00,42.1,35.1,29.99,SE,130,4.0,4.5,76,0.00,,CLR,0.00,VWS V14.01,2013-02-06 02:59:00,
2013-02-05 19:04:00,42.1,36.0,29.99,SE,131,4.0,4.9,79,0.00,,CLR,0.00,VWS V14.01,2013-02-06 03:04:00,
2013-02-05 19:09:00,41.9,36.2,29.99,SE,134,3.6,4.5,80,0.00,,CLR,0.00,VWS V14.01,2013-02-06 03:09:00,
2013-02-05 19:14:00,42.1,36.7,29.99,SE,134,3.6,4.0,81,0.00,,CLR,0.00,VWS V14.01,2013-02-06 03:14:00,
2013-02-05 19:19:00,42.1,37.0,29.99,SE,135,4.9,4.9,82,0.00,,CLR,0.00,VWS V14.01,2013-02-06 03:19:00,
2013-02-05 19:24:00,41.9,37.1,29.99,SE,136,4.0,4.0,83,0.00,,CLR,0.00,VWS V14.01,2013-02-06 03:24:00,
2013-02-05 19:29:00,41.7,37.0,29.99,SE,136,4.0,4.5,83,0.00,,CLR,0.00,VWS V14.01,2013-02-06 03:29:00,
2013-02-05 19:34:00,41.4,36.6,29.99,SE,135,2.7,4.9,83,0.00,,CLR,0.00,VWS V14.01,2013-02-06 03:34:00,
2013-02-05 19:40:00,41.2,36.4,29.99,SE,135,4.5,4.9,83,0.00,,CLR,0.00,VWS V14.01,2013-02-06 03:40:00,
2013-02-05 19:45:00,41.2,36.7,29.99,SE,135,4.5,4.9,84,0.00,,CLR,0.00,VWS V14.01,2013-02-06 03:45:00,
2013-02-05 19:50:00,40.6,36.2,29.99,SE,137,4.9,6.7,84,0.00,,CLR,0.00,VWS V14.01,2013-02-06 03:50:00,
2013-02-05 19:55:00,41.0,37.1,29.99,SE,144,4.0,5.4,86,0.00,,CLR,0.00,VWS V14.01,2013-02-06 03:55:00,
2013-02-05 20:00:00,41.4,37.5,29.99,SE,143,3.6,4.5,86,0.00,,CLR,0.00,VWS V14.01,2013-02-06 04:00:00,
2013-02-05 20:06:00,41.5,38.0,29.99,SE,144,4.5,4.9,87,0.00,,CLR,0.00,VWS V14.01,2013-02-06 04:06:00,
2013-02-05 20:11:00,41.4,37.8,29.99,South,171,0.0,0.0,87,0.00,,CLR,0.00,VWS V14.01,2013-02-06 04:11:00,
2013-02-05 20:16:00,41.5,38.0,29.99,South,170,4.0,4.0,87,0.00,,CLR,0.00,VWS V14.01,2013-02-06 04:16:00,
2013-02-05 20:21:00,41.0,37.4,29.99,South,170,4.0,4.0,87,0.00,,CLR,0.00,VWS V14.01,2013-02-06 04:21:00,
2013-02-05 20:26:00,41.0,37.4,29.99,SSE,150,3.1,4.0,87,0.00,,CLR,0.00,VWS V14.01,2013-02-06 04:26:00,
2013-02-05 20:31:00,40.6,36.8,29.99,SSE,149,3.1,4.0,86,0.00,,CLR,0.00,VWS V14.01,2013-02-06 04:31:00,
2013-02-05 20:36:00,40.6,36.8,29.99,SSE,148,0.0,3.1,86,0.00,,CLR,0.00,VWS V14.01,2013-02-06 04:36:00,
2013-02-05 20:41:00,40.5,36.6,29.99,SSE,149,3.6,3.6,86,0.00,,CLR,0.00,VWS V14.01,2013-02-06 04:41:00,
2013-02-05 20:46:00,40.5,36.9,29.99,SSE,149,3.6,4.0,87,0.00,,CLR,0.00,VWS V14.01,2013-02-06 04:46:00,
2013-02-05 20:51:00,40.5,36.9,29.99,SSE,149,4.0,4.5,87,0.00,,CLR,0.00,VWS V14.01,2013-02-06 04:51:00,
2013-02-05 20:56:00,40.5,36.9,29.99,SSE,149,2.7,3.1,87,0.00,,CLR,0.00,VWS V14.01,2013-02-06 04:56:00,
2013-02-05 21:00:00,40.6,37.1,29.99,SSE,150,0.0,0.0,87,0.00,,CLR,0.00,VWS V14.01,2013-02-06 05:00:00,
2013-02-05 21:02:00,40.6,37.4,29.99,SSE,149,0.0,0.0,88,0.00,,CLR,0.00,VWS V14.01,2013-02-06 05:02:00,
2013-02-05 21:07:00,40.3,37.0,29.99,SSE,149,0.0,0.0,88,0.00,,CLR,0.00,VWS V14.01,2013-02-06 05:07:00,
2013-02-05 21:13:00,39.4,35.8,29.99,SSE,149,0.0,0.0,87,0.00,,CLR,0.00,VWS V14.01,2013-02-06 05:13:00,
2013-02-05 21:18:00,38.8,35.3,30.02,SSE,150,4.5,4.9,87,0.00,,CLR,0.00,VWS V14.01,2013-02-06 05:18:00,
2013-02-05 21:23:00,38.7,34.8,30.02,SSE,149,4.5,4.9,86,0.00,,CLR,0.00,VWS V14.01,2013-02-06 05:23:00,
2013-02-05 21:26:00,38.5,35.0,30.02,SSE,149,4.0,4.5,87,0.00,,CLR,0.00,VWS V14.01,2013-02-06 05:26:00,
2013-02-05 21:30:00,38.7,35.1,30.02,SSE,149,0.0,0.0,87,0.00,,CLR,0.00,VWS V14.01,2013-02-06 05:30:00,
2013-02-05 21:35:00,39.2,36.2,30.02,SSE,149,0.0,0.0,89,0.00,,CLR,0.00,VWS V14.01,2013-02-06 05:35:00,
2013-02-05 21:40:00,38.7,35.7,30.02,SSE,150,0.0,0.0,89,0.00,,CLR,0.00,VWS V14.01,2013-02-06 05:40:00,
2013-02-05 21:45:00,38.8,36.2,30.02,SSE,149,0.0,0.0,90,0.00,,CLR,0.00,VWS V14.01,2013-02-06 05:45:00,
2013-02-05 21:50:00,38.7,36.0,30.02,SSE,149,0.0,0.0,90,0.00,,CLR,0.00,VWS V14.01,2013-02-06 05:50:00,
2013-02-05 21:55:00,38.7,36.0,30.02,SSE,149,0.0,0.0,90,0.00,,CLR,0.00,VWS V14.01,2013-02-06 05:55:00,
2013-02-05 22:00:00,37.8,34.8,30.02,SSE,149,0.0,0.0,89,0.00,,CLR,0.00,VWS V14.01,2013-02-06 06:00:00,
2013-02-05 22:05:00,37.8,34.8,30.02,SSE,149,0.0,0.0,89,0.00,,CLR,0.00,VWS V14.01,2013-02-06 06:05:00,
2013-02-05 22:10:00,37.6,34.6,30.02,SSE,149,0.0,0.0,89,0.00,,CLR,0.00,VWS V14.01,2013-02-06 06:10:00,
2013-02-05 22:15:00,37.4,34.5,30.02,SSE,149,0.0,0.0,89,0.00,,CLR,0.00,VWS V14.01,2013-02-06 06:15:00,
2013-02-05 22:21:00,37.2,34.3,30.02,SSE,150,0.0,0.0,89,0.00,,CLR,0.00,VWS V14.01,2013-02-06 06:21:00,
2013-02-05 22:26:00,36.7,33.5,30.02,SSE,150,0.0,0.0,88,0.00,,CLR,0.00,VWS V14.01,2013-02-06 06:26:00,
2013-02-05 22:31:00,36.5,33.3,30.02,SSE,149,3.6,4.0,88,0.00,,CLR,0.00,VWS V14.01,2013-02-06 06:31:00,
2013-02-05 22:36:00,36.3,33.1,30.02,SSE,149,4.9,5.4,88,0.00,,CLR,0.00,VWS V14.01,2013-02-06 06:36:00,
2013-02-05 22:41:00,37.0,34.4,30.02,SSE,149,4.0,4.5,90,0.00,,CLR,0.00,VWS V14.01,2013-02-06 06:41:00,
2013-02-05 22:46:00,37.6,35.5,30.02,SSE,149,4.0,4.0,92,0.00,,CLR,0.00,VWS V14.01,2013-02-06 06:46:00,
2013-02-05 22:51:00,37.0,34.9,30.02,SSE,149,3.1,4.0,92,0.00,,CLR,0.00,VWS V14.01,2013-02-06 06:51:00,
2013-02-05 22:56:00,36.7,34.6,30.02,SSE,149,3.6,4.5,92,0.00,,CLR,0.00,VWS V14.01,2013-02-06 06:56:00,
2013-02-05 23:02:00,36.5,34.4,30.02,SSE,150,4.0,4.5,92,0.00,,CLR,0.00,VWS V14.01,2013-02-06 07:02:00,
2013-02-05 23:07:00,36.9,35.0,30.02,SSE,150,3.1,4.0,93,0.00,,CLR,0.00,VWS V14.01,2013-02-06 07:07:00,
2013-02-05 23:12:00,36.5,34.7,30.02,SSE,149,3.6,3.6,93,0.00,,CLR,0.00,VWS V14.01,2013-02-06 07:12:00,
2013-02-05 23:17:00,36.1,34.3,30.02,SSE,149,4.5,4.5,93,0.00,,CLR,0.00,VWS V14.01,2013-02-06 07:17:00,
2013-02-05 23:23:00,36.1,34.3,30.02,SSE,149,3.6,4.5,93,0.00,,CLR,0.00,VWS V14.01,2013-02-06 07:23:00,
2013-02-05 23:28:00,36.1,34.3,30.02,SSE,149,4.0,4.5,93,0.00,,CLR,0.00,VWS V14.01,2013-02-06 07:28:00,
2013-02-05 23:33:00,36.1,34.3,30.02,SSE,150,4.0,4.0,93,0.00,,CLR,0.00,VWS V14.01,2013-02-06 07:33:00,
2013-02-05 23:38:00,36.1,34.6,30.02,SSE,149,3.1,3.6,94,0.00,,CLR,0.00,VWS V14.01,2013-02-06 07:38:00,
2013-02-05 23:43:00,36.0,34.4,30.02,SSE,149,3.6,3.6,94,0.00,,CLR,0.00,VWS V14.01,2013-02-06 07:43:00,
2013-02-05 23:48:00,36.3,34.8,30.02,SSE,149,3.6,4.0,94,0.00,,CLR,0.00,VWS V14.01,2013-02-06 07:48:00,
2013-02-05 23:53:00,36.7,35.4,30.02,SSE,149,3.6,4.0,95,0.00,,CLR,0.00,VWS V14.01,2013-02-06 07:53:00,
2013-02-05 23:58:00,34.5,32.7,30.02,SSE,149,4.0,4.9,93,0.00,,CLR,0.00,VWS V14.01,2013-02-06 07:58:00,